Boncarbo, Colorado
Current Conditions -  °F | °C
As of 3:54 PM on Thursday 27 Nov 2014 (Local Time) from KTAD Reporting Station
Clear Clear  
Wind Chill: 64°   Ceiling: Unl
Heat Index: 64°   Visibility: 10mi
Dew Point: 25°   Wind: 3mph
Humidity: 23%   Direction: 320°NW
Pressure: 30.21"   Gusts: NA
Location:  37.22°N, 104.7°W
Report Text: KTAD 272254Z AUTO 32003KT 10SM CLR 18/M04 A3021 RMK AO2 SLP192 T01781039
Loading
Personal Weather Stations






























Interactive Weather Map New forecast layout! Learn more

10-Day Weather Forecast

Advertisements
Track Severe Weather on mobile